Etusivu
METAR-TAF:

METAR-TAF

Lentoasemat :

Prinsessa Julianan lentoasema

Sint Maarten, Alankomaiden Antillit

Leveyspiiri: 18-03N, Pituuspiiri: 063-07W, korkeus merenpinnasta: 4 m

Tämänhetkinen sää

Tämä raportti tehtiin 55 minuuttia sitten, kello 10.00 UTC
Tuuli 6 kn idästä/koillisesta, vaihdellen koillisen ja idän/kaakon välillä
Lämpötila 28°C
Kosteus 89%
Ilmanpaine 1015 hPa
Näkyvyys 10 km tai enemmän
Muutamia pilviä 1800 ft:n korkeudessa

METAR: TNCM 211000Z 07006KT 050V120 9999 FEW018 28/26 Q1015 NOSIG

Aika: 06:55 (10:55 UTC)

Sääennuste

Tämä raportti tehtiin 12 tuntia ja 55 minuuttia sitten, kello 22.00 UTC
Ennuste voimassa 21. päivästä klo 00 UTC - 21. päivään klo 24 UTC
Tuuli 10 kn idästä
Näkyvyys 10 km tai enemmän
Hajanaisia pilviä 1800 ft:n korkeudessa

TAF: TNCM 202200Z 2100/2124 10010KT 9999 SCT018

Säähavainnot ja -ennusteet yli 4000 lentoasemalta (METAR- ja TAF-raportit).

Käytössä olevat sääasemat on merkitty karttaan keltaisilla ja punaisilla pisteillä.

Aseta hiiri pisteen päälle nähdäksesi sääaseman nimen.

Klikkaa sitten nähdäksesi säähavainnot ja -ennusteet.

Kartan vaihtaminen: klikkaa mustalla rastilla varustettuja vihreitä pisteitä, niin voit zoomata sisään; viivalla varustettua vihreää pistettä, niin voit zoomata ulos tai vihreitä nuolia, niin pääset viereisille kartoille.


METAR-TAF: